sensor_id;sensor_type;location;lat;lon;timestamp;pressure;altitude;pressure_sealevel;temperature;humidity
56568;BME280;42456;49.956;20.004;2023-04-29T00:01:06;98130.80;;;4.72;70.59
56568;BME280;42456;49.956;20.004;2023-04-29T00:03:33;98127.05;;;4.70;70.44
56568;BME280;42456;49.956;20.004;2023-04-29T00:06:01;98128.45;;;4.66;70.71
56568;BME280;42456;49.956;20.004;2023-04-29T00:08:28;98129.05;;;4.62;70.64
56568;BME280;42456;49.956;20.004;2023-04-29T00:10:55;98131.35;;;4.58;70.65
56568;BME280;42456;49.956;20.004;2023-04-29T00:13:22;98134.16;;;4.56;70.62
56568;BME280;42456;49.956;20.004;2023-04-29T00:15:49;98140.55;;;4.54;70.99
56568;BME280;42456;49.956;20.004;2023-04-29T00:18:16;98137.14;;;4.50;70.94
56568;BME280;42456;49.956;20.004;2023-04-29T00:20:43;98140.24;;;4.46;71.33
56568;BME280;42456;49.956;20.004;2023-04-29T00:23:10;98137.89;;;4.44;71.31
56568;BME280;42456;49.956;20.004;2023-04-29T00:25:37;98135.34;;;4.40;71.42
56568;BME280;42456;49.956;20.004;2023-04-29T00:28:05;98133.80;;;4.37;71.45
56568;BME280;42456;49.956;20.004;2023-04-29T00:30:32;98130.41;;;4.32;71.47
56568;BME280;42456;49.956;20.004;2023-04-29T00:33:02;98130.06;;;4.28;71.57
56568;BME280;42456;49.956;20.004;2023-04-29T00:35:29;98129.80;;;4.25;71.85
56568;BME280;42456;49.956;20.004;2023-04-29T00:37:56;98128.15;;;4.22;71.92
56568;BME280;42456;49.956;20.004;2023-04-29T00:40:23;98128.61;;;4.19;71.86
56568;BME280;42456;49.956;20.004;2023-04-29T00:42:50;98127.65;;;4.16;71.98
56568;BME280;42456;49.956;20.004;2023-04-29T00:45:17;98123.17;;;4.13;72.02
56568;BME280;42456;49.956;20.004;2023-04-29T00:47:44;98121.05;;;4.10;72.25
56568;BME280;42456;49.956;20.004;2023-04-29T00:50:11;98118.16;;;4.06;72.41
56568;BME280;42456;49.956;20.004;2023-04-29T00:52:38;98117.34;;;4.01;72.18
56568;BME280;42456;49.956;20.004;2023-04-29T00:55:06;98113.40;;;3.98;72.51
56568;BME280;42456;49.956;20.004;2023-04-29T00:57:34;98113.36;;;3.93;72.35
56568;BME280;42456;49.956;20.004;2023-04-29T01:00:01;98111.92;;;3.91;72.86
56568;BME280;42456;49.956;20.004;2023-04-29T01:02:30;98112.64;;;3.87;72.94
56568;BME280;42456;49.956;20.004;2023-04-29T01:04:57;98113.81;;;3.85;73.08
56568;BME280;42456;49.956;20.004;2023-04-29T01:07:33;98114.83;;;3.81;73.32
56568;BME280;42456;49.956;20.004;2023-04-29T01:10:09;98117.35;;;3.80;73.60
56568;BME280;42456;49.956;20.004;2023-04-29T01:13:03;98117.36;;;3.79;73.75
56568;BME280;42456;49.956;20.004;2023-04-29T01:15:46;98117.93;;;3.80;74.01
56568;BME280;42456;49.956;20.004;2023-04-29T01:18:24;98110.04;;;3.81;74.17
56568;BME280;42456;49.956;20.004;2023-04-29T01:20:52;98111.60;;;3.83;74.25
56568;BME280;42456;49.956;20.004;2023-04-29T01:23:19;98110.41;;;3.85;74.62
56568;BME280;42456;49.956;20.004;2023-04-29T01:25:46;98110.96;;;3.87;74.72
56568;BME280;42456;49.956;20.004;2023-04-29T01:31:18;98114.73;;;3.98;75.22
56568;BME280;42456;49.956;20.004;2023-04-29T01:36:43;98112.14;;;4.08;75.39
56568;BME280;42456;49.956;20.004;2023-04-29T01:39:15;98111.93;;;4.14;75.40
56568;BME280;42456;49.956;20.004;2023-04-29T01:41:55;98112.98;;;4.20;75.37
56568;BME280;42456;49.956;20.004;2023-04-29T01:44:28;98113.56;;;4.28;75.93
56568;BME280;42456;49.956;20.004;2023-04-29T01:46:55;98112.75;;;4.35;76.03
56568;BME280;42456;49.956;20.004;2023-04-29T01:49:26;98113.27;;;4.42;76.00
56568;BME280;42456;49.956;20.004;2023-04-29T01:51:54;98111.88;;;4.48;76.59
56568;BME280;42456;49.956;20.004;2023-04-29T01:54:21;98105.80;;;4.52;76.44
56568;BME280;42456;49.956;20.004;2023-04-29T01:56:48;98101.11;;;4.55;76.51
56568;BME280;42456;49.956;20.004;2023-04-29T01:59:15;98099.06;;;4.59;76.97
56568;BME280;42456;49.956;20.004;2023-04-29T02:01:42;98101.64;;;4.64;76.87
56568;BME280;42456;49.956;20.004;2023-04-29T02:04:09;98098.70;;;4.67;77.22
56568;BME280;42456;49.956;20.004;2023-04-29T02:06:36;98096.81;;;4.71;77.05
56568;BME280;42456;49.956;20.004;2023-04-29T02:09:03;98096.08;;;4.76;77.38
56568;BME280;42456;49.956;20.004;2023-04-29T02:11:30;98096.54;;;4.80;77.43
56568;BME280;42456;49.956;20.004;2023-04-29T02:13:57;98098.34;;;4.84;77.07
56568;BME280;42456;49.956;20.004;2023-04-29T02:16:24;98100.79;;;4.86;77.03
56568;BME280;42456;49.956;20.004;2023-04-29T02:18:51;98093.61;;;4.90;77.15
56568;BME280;42456;49.956;20.004;2023-04-29T02:21:18;98097.02;;;4.94;77.54
56568;BME280;42456;49.956;20.004;2023-04-29T02:23:45;98097.53;;;4.97;77.28
56568;BME280;42456;49.956;20.004;2023-04-29T02:26:12;98092.46;;;5.01;77.08
56568;BME280;42456;49.956;20.004;2023-04-29T02:28:41;98097.23;;;5.05;77.66
56568;BME280;42456;49.956;20.004;2023-04-29T02:31:08;98094.95;;;5.09;77.46
56568;BME280;42456;49.956;20.004;2023-04-29T02:33:34;98093.09;;;5.12;77.24
56568;BME280;42456;49.956;20.004;2023-04-29T02:36:02;98093.79;;;5.17;77.26
56568;BME280;42456;49.956;20.004;2023-04-29T02:38:29;98093.70;;;5.21;78.19
56568;BME280;42456;49.956;20.004;2023-04-29T02:40:56;98092.58;;;5.24;77.71
56568;BME280;42456;49.956;20.004;2023-04-29T02:43:28;98089.39;;;5.28;78.43
56568;BME280;42456;49.956;20.004;2023-04-29T02:46:02;98093.10;;;5.32;78.35
56568;BME280;42456;49.956;20.004;2023-04-29T02:48:30;98091.00;;;5.35;78.42
56568;BME280;42456;49.956;20.004;2023-04-29T02:50:57;98091.56;;;5.38;78.37
56568;BME280;42456;49.956;20.004;2023-04-29T02:53:24;98090.09;;;5.42;78.07
56568;BME280;42456;49.956;20.004;2023-04-29T02:55:51;98094.33;;;5.46;78.42
56568;BME280;42456;49.956;20.004;2023-04-29T02:58:17;98094.55;;;5.51;78.25
56568;BME280;42456;49.956;20.004;2023-04-29T03:00:44;98093.96;;;5.56;77.97
56568;BME280;42456;49.956;20.004;2023-04-29T03:03:11;98092.83;;;5.60;77.81
56568;BME280;42456;49.956;20.004;2023-04-29T03:05:39;98087.95;;;5.64;78.17
56568;BME280;42456;49.956;20.004;2023-04-29T03:08:06;98089.63;;;5.69;77.95
56568;BME280;42456;49.956;20.004;2023-04-29T03:10:33;98085.42;;;5.73;78.26
56568;BME280;42456;49.956;20.004;2023-04-29T03:13:00;98087.34;;;5.77;78.00
56568;BME280;42456;49.956;20.004;2023-04-29T03:15:27;98087.91;;;5.81;77.72
56568;BME280;42456;49.956;20.004;2023-04-29T03:17:54;98082.89;;;5.84;77.50
56568;BME280;42456;49.956;20.004;2023-04-29T03:20:21;98085.14;;;5.89;77.99
56568;BME280;42456;49.956;20.004;2023-04-29T03:22:48;98084.83;;;5.93;77.95
56568;BME280;42456;49.956;20.004;2023-04-29T03:25:15;98084.18;;;5.97;78.08
56568;BME280;42456;49.956;20.004;2023-04-29T03:27:42;98081.33;;;6.01;78.38
56568;BME280;42456;49.956;20.004;2023-04-29T03:30:09;98079.44;;;6.04;78.66
56568;BME280;42456;49.956;20.004;2023-04-29T03:32:36;98085.39;;;6.07;78.43
56568;BME280;42456;49.956;20.004;2023-04-29T03:35:04;98080.65;;;6.11;78.12
56568;BME280;42456;49.956;20.004;2023-04-29T03:37:31;98081.27;;;6.14;78.39
56568;BME280;42456;49.956;20.004;2023-04-29T03:40:05;98078.91;;;6.17;78.56
56568;BME280;42456;49.956;20.004;2023-04-29T03:42:36;98081.83;;;6.19;78.84
56568;BME280;42456;49.956;20.004;2023-04-29T03:45:04;98083.55;;;6.23;78.99
56568;BME280;42456;49.956;20.004;2023-04-29T03:47:32;98084.42;;;6.25;79.31
56568;BME280;42456;49.956;20.004;2023-04-29T03:49:59;98084.05;;;6.27;79.09
56568;BME280;42456;49.956;20.004;2023-04-29T03:52:27;98084.72;;;6.30;78.97
56568;BME280;42456;49.956;20.004;2023-04-29T03:54:54;98080.54;;;6.33;79.24
56568;BME280;42456;49.956;20.004;2023-04-29T03:57:21;98083.29;;;6.36;79.23
56568;BME280;42456;49.956;20.004;2023-04-29T03:59:48;98082.52;;;6.38;79.45
56568;BME280;42456;49.956;20.004;2023-04-29T04:02:16;98087.05;;;6.44;79.22
56568;BME280;42456;49.956;20.004;2023-04-29T04:04:44;98084.20;;;6.48;79.08
56568;BME280;42456;49.956;20.004;2023-04-29T04:07:11;98089.22;;;6.52;79.29
56568;BME280;42456;49.956;20.004;2023-04-29T04:09:38;98085.70;;;6.56;79.17
56568;BME280;42456;49.956;20.004;2023-04-29T04:12:05;98084.40;;;6.61;79.26
56568;BME280;42456;49.956;20.004;2023-04-29T04:14:32;98084.33;;;6.66;79.32
56568;BME280;42456;49.956;20.004;2023-04-29T04:17:00;98079.88;;;6.70;79.67
56568;BME280;42456;49.956;20.004;2023-04-29T04:19:29;98075.34;;;6.74;79.41
56568;BME280;42456;49.956;20.004;2023-04-29T04:21:56;98074.39;;;6.79;79.47
56568;BME280;42456;49.956;20.004;2023-04-29T04:24:43;98071.39;;;6.87;79.52
56568;BME280;42456;49.956;20.004;2023-04-29T04:27:10;98074.23;;;6.98;79.44
56568;BME280;42456;49.956;20.004;2023-04-29T04:29:38;98074.42;;;7.09;79.56
56568;BME280;42456;49.956;20.004;2023-04-29T04:32:04;98079.25;;;7.20;79.53
56568;BME280;42456;49.956;20.004;2023-04-29T04:34:32;98072.85;;;7.30;79.47
56568;BME280;42456;49.956;20.004;2023-04-29T04:36:59;98070.15;;;7.39;79.47
56568;BME280;42456;49.956;20.004;2023-04-29T04:39:26;98069.98;;;7.49;79.38
56568;BME280;42456;49.956;20.004;2023-04-29T04:41:53;98075.19;;;7.57;79.32
56568;BME280;42456;49.956;20.004;2023-04-29T04:44:20;98073.58;;;7.64;79.08
56568;BME280;42456;49.956;20.004;2023-04-29T04:46:47;98074.84;;;7.72;78.87
56568;BME280;42456;49.956;20.004;2023-04-29T04:49:14;98068.98;;;7.78;78.88
56568;BME280;42456;49.956;20.004;2023-04-29T04:51:44;98070.30;;;7.85;78.71
56568;BME280;42456;49.956;20.004;2023-04-29T04:54:11;98069.36;;;7.91;78.84
56568;BME280;42456;49.956;20.004;2023-04-29T04:56:38;98065.61;;;7.96;78.14
56568;BME280;42456;49.956;20.004;2023-04-29T04:59:05;98066.96;;;8.03;78.29
56568;BME280;42456;49.956;20.004;2023-04-29T05:01:32;98068.17;;;8.10;78.25
56568;BME280;42456;49.956;20.004;2023-04-29T05:03:59;98071.35;;;8.16;77.99
56568;BME280;42456;49.956;20.004;2023-04-29T05:06:28;98073.24;;;8.22;77.98
56568;BME280;42456;49.956;20.004;2023-04-29T05:08:55;98070.35;;;8.27;77.76
56568;BME280;42456;49.956;20.004;2023-04-29T05:11:22;98069.54;;;8.33;77.84
56568;BME280;42456;49.956;20.004;2023-04-29T05:13:49;98068.58;;;8.39;77.79
56568;BME280;42456;49.956;20.004;2023-04-29T05:16:16;98072.88;;;8.45;77.30
56568;BME280;42456;49.956;20.004;2023-04-29T05:18:43;98077.43;;;8.51;77.67
56568;BME280;42456;49.956;20.004;2023-04-29T05:21:11;98079.06;;;8.55;78.22
56568;BME280;42456;49.956;20.004;2023-04-29T05:23:55;98078.92;;;8.59;77.91
56568;BME280;42456;49.956;20.004;2023-04-29T05:26:22;98079.89;;;8.64;77.83
56568;BME280;42456;49.956;20.004;2023-04-29T05:28:49;98083.96;;;8.68;77.92
56568;BME280;42456;49.956;20.004;2023-04-29T05:31:18;98084.84;;;8.73;77.76
56568;BME280;42456;49.956;20.004;2023-04-29T05:33:47;98084.23;;;8.76;77.83
56568;BME280;42456;49.956;20.004;2023-04-29T05:36:35;98083.98;;;8.82;78.01
56568;BME280;42456;49.956;20.004;2023-04-29T05:39:20;98082.77;;;8.85;77.46
56568;BME280;42456;49.956;20.004;2023-04-29T05:42:26;98080.30;;;8.89;77.73
56568;BME280;42456;49.956;20.004;2023-04-29T05:45:55;98078.69;;;8.96;77.53
56568;BME280;42456;49.956;20.004;2023-04-29T05:48:21;98074.53;;;9.01;77.51
56568;BME280;42456;49.956;20.004;2023-04-29T05:50:49;98080.21;;;9.07;77.59
56568;BME280;42456;49.956;20.004;2023-04-29T05:53:16;98076.48;;;9.14;77.67
56568;BME280;42456;49.956;20.004;2023-04-29T05:55:44;98080.20;;;9.21;77.81
56568;BME280;42456;49.956;20.004;2023-04-29T05:58:14;98079.96;;;9.28;77.97
56568;BME280;42456;49.956;20.004;2023-04-29T06:00:42;98082.44;;;9.34;77.72
56568;BME280;42456;49.956;20.004;2023-04-29T06:03:10;98085.16;;;9.42;77.56
56568;BME280;42456;49.956;20.004;2023-04-29T06:05:38;98084.17;;;9.50;77.65
56568;BME280;42456;49.956;20.004;2023-04-29T06:08:06;98088.20;;;9.58;77.66
56568;BME280;42456;49.956;20.004;2023-04-29T06:10:33;98090.92;;;9.66;77.57
56568;BME280;42456;49.956;20.004;2023-04-29T06:13:00;98090.41;;;9.73;77.54
56568;BME280;42456;49.956;20.004;2023-04-29T06:15:27;98092.37;;;9.80;77.47
56568;BME280;42456;49.956;20.004;2023-04-29T06:17:54;98093.16;;;9.85;77.03
56568;BME280;42456;49.956;20.004;2023-04-29T06:20:21;98087.77;;;9.91;76.96
56568;BME280;42456;49.956;20.004;2023-04-29T06:22:48;98078.98;;;9.95;76.78
56568;BME280;42456;49.956;20.004;2023-04-29T06:25:15;98072.77;;;10.02;76.69
56568;BME280;42456;49.956;20.004;2023-04-29T06:27:42;98075.96;;;10.11;76.53
56568;BME280;42456;49.956;20.004;2023-04-29T06:30:09;98079.63;;;10.21;76.34
56568;BME280;42456;49.956;20.004;2023-04-29T06:32:38;98079.36;;;10.31;76.13
56568;BME280;42456;49.956;20.004;2023-04-29T06:35:05;98078.90;;;10.44;75.96
56568;BME280;42456;49.956;20.004;2023-04-29T06:37:33;98075.91;;;10.57;75.68
56568;BME280;42456;49.956;20.004;2023-04-29T06:40:03;98077.59;;;10.73;75.59
56568;BME280;42456;49.956;20.004;2023-04-29T06:42:31;98078.30;;;10.88;75.33
56568;BME280;42456;49.956;20.004;2023-04-29T06:44:58;98075.91;;;11.02;74.75
56568;BME280;42456;49.956;20.004;2023-04-29T06:47:25;98071.61;;;11.13;74.28
56568;BME280;42456;49.956;20.004;2023-04-29T06:49:52;98068.73;;;11.22;73.80
56568;BME280;42456;49.956;20.004;2023-04-29T06:52:21;98069.91;;;11.28;73.37
56568;BME280;42456;49.956;20.004;2023-04-29T06:54:48;98072.89;;;11.34;72.91
56568;BME280;42456;49.956;20.004;2023-04-29T06:57:15;98074.33;;;11.41;72.80
56568;BME280;42456;49.956;20.004;2023-04-29T06:59:42;98074.59;;;11.47;72.29
56568;BME280;42456;49.956;20.004;2023-04-29T07:02:08;98077.33;;;11.48;72.09
56568;BME280;42456;49.956;20.004;2023-04-29T07:04:35;98079.13;;;11.50;71.86
56568;BME280;42456;49.956;20.004;2023-04-29T07:07:03;98082.15;;;11.50;71.75
56568;BME280;42456;49.956;20.004;2023-04-29T07:09:30;98081.05;;;11.52;71.26
56568;BME280;42456;49.956;20.004;2023-04-29T07:11:57;98079.04;;;11.52;70.80
56568;BME280;42456;49.956;20.004;2023-04-29T07:14:23;98073.78;;;11.54;70.43
56568;BME280;42456;49.956;20.004;2023-04-29T07:16:54;98078.05;;;11.60;70.62
56568;BME280;42456;49.956;20.004;2023-04-29T07:19:21;98079.35;;;11.69;70.47
56568;BME280;42456;49.956;20.004;2023-04-29T07:21:48;98079.85;;;11.78;70.23
56568;BME280;42456;49.956;20.004;2023-04-29T07:24:15;98079.56;;;11.89;70.11
56568;BME280;42456;49.956;20.004;2023-04-29T07:26:43;98074.55;;;12.04;69.95
56568;BME280;42456;49.956;20.004;2023-04-29T07:29:14;98076.03;;;12.25;69.77
56568;BME280;42456;49.956;20.004;2023-04-29T07:31:41;98072.77;;;12.46;69.31
56568;BME280;42456;49.956;20.004;2023-04-29T07:34:08;98074.29;;;12.65;68.63
56568;BME280;42456;49.956;20.004;2023-04-29T07:36:35;98074.40;;;12.82;67.78
56568;BME280;42456;49.956;20.004;2023-04-29T07:39:02;98075.00;;;12.94;67.53
56568;BME280;42456;49.956;20.004;2023-04-29T07:41:29;98069.31;;;13.06;67.37
56568;BME280;42456;49.956;20.004;2023-04-29T07:43:57;98067.09;;;13.16;66.48
56568;BME280;42456;49.956;20.004;2023-04-29T07:46:23;98067.23;;;13.29;66.29
56568;BME280;42456;49.956;20.004;2023-04-29T07:48:50;98067.26;;;13.40;65.75
56568;BME280;42456;49.956;20.004;2023-04-29T07:51:18;98061.05;;;13.59;65.97
56568;BME280;42456;49.956;20.004;2023-04-29T07:53:45;98062.22;;;13.81;65.53
56568;BME280;42456;49.956;20.004;2023-04-29T07:56:12;98064.39;;;13.96;64.75
56568;BME280;42456;49.956;20.004;2023-04-29T07:58:39;98070.45;;;14.09;64.02
56568;BME280;42456;49.956;20.004;2023-04-29T08:01:10;98069.12;;;14.23;63.67
56568;BME280;42456;49.956;20.004;2023-04-29T08:03:38;98072.23;;;14.35;62.93
56568;BME280;42456;49.956;20.004;2023-04-29T08:06:07;98073.30;;;14.50;62.90
56568;BME280;42456;49.956;20.004;2023-04-29T08:08:34;98073.05;;;14.66;62.29
56568;BME280;42456;49.956;20.004;2023-04-29T08:11:01;98071.70;;;14.81;61.11
56568;BME280;42456;49.956;20.004;2023-04-29T08:13:29;98074.54;;;14.98;60.87
56568;BME280;42456;49.956;20.004;2023-04-29T08:15:56;98074.20;;;15.15;60.21
56568;BME280;42456;49.956;20.004;2023-04-29T08:18:23;98073.92;;;15.26;58.88
56568;BME280;42456;49.956;20.004;2023-04-29T08:20:50;98075.42;;;15.33;58.54
56568;BME280;42456;49.956;20.004;2023-04-29T08:23:17;98076.99;;;15.35;57.81
56568;BME280;42456;49.956;20.004;2023-04-29T08:25:44;98071.42;;;15.38;58.60
56568;BME280;42456;49.956;20.004;2023-04-29T08:28:11;98072.23;;;15.46;58.41
56568;BME280;42456;49.956;20.004;2023-04-29T08:30:39;98073.20;;;15.54;58.35
56568;BME280;42456;49.956;20.004;2023-04-29T08:33:07;98073.23;;;15.66;58.03
56568;BME280;42456;49.956;20.004;2023-04-29T08:35:35;98072.16;;;15.73;57.56
56568;BME280;42456;49.956;20.004;2023-04-29T08:38:05;98071.41;;;15.75;57.26
56568;BME280;42456;49.956;20.004;2023-04-29T08:40:34;98068.71;;;15.76;57.35
56568;BME280;42456;49.956;20.004;2023-04-29T08:43:04;98070.45;;;15.78;57.09
56568;BME280;42456;49.956;20.004;2023-04-29T08:45:32;98072.14;;;15.78;56.70
56568;BME280;42456;49.956;20.004;2023-04-29T08:48:00;98072.33;;;15.80;56.54
56568;BME280;42456;49.956;20.004;2023-04-29T08:50:29;98072.59;;;15.82;56.37
56568;BME280;42456;49.956;20.004;2023-04-29T08:52:57;98069.68;;;15.90;56.60
56568;BME280;42456;49.956;20.004;2023-04-29T08:55:24;98069.19;;;16.00;56.22
56568;BME280;42456;49.956;20.004;2023-04-29T08:57:53;98070.48;;;16.05;55.72
56568;BME280;42456;49.956;20.004;2023-04-29T09:00:23;98067.42;;;16.08;56.17
56568;BME280;42456;49.956;20.004;2023-04-29T09:02:52;98066.24;;;16.19;56.11
56568;BME280;42456;49.956;20.004;2023-04-29T09:05:21;98063.33;;;16.35;55.67
56568;BME280;42456;49.956;20.004;2023-04-29T09:07:50;98061.20;;;16.50;55.55
56568;BME280;42456;49.956;20.004;2023-04-29T09:10:18;98061.45;;;16.67;55.42
56568;BME280;42456;49.956;20.004;2023-04-29T09:12:45;98057.83;;;16.84;54.63
56568;BME280;42456;49.956;20.004;2023-04-29T09:15:12;98060.13;;;17.01;54.30
56568;BME280;42456;49.956;20.004;2023-04-29T09:17:43;98065.70;;;17.16;54.54
56568;BME280;42456;49.956;20.004;2023-04-29T09:22:49;98058.26;;;17.47;54.30
56568;BME280;42456;49.956;20.004;2023-04-29T09:25:16;98057.38;;;17.64;53.53
56568;BME280;42456;49.956;20.004;2023-04-29T09:27:43;98061.34;;;17.78;52.86
56568;BME280;42456;49.956;20.004;2023-04-29T09:30:10;98058.48;;;17.96;53.42
56568;BME280;42456;49.956;20.004;2023-04-29T09:32:39;98059.88;;;18.19;53.48
56568;BME280;42456;49.956;20.004;2023-04-29T09:35:21;98058.56;;;18.37;52.16
56568;BME280;42456;49.956;20.004;2023-04-29T09:37:49;98056.58;;;18.47;51.32
56568;BME280;42456;49.956;20.004;2023-04-29T09:40:30;98052.87;;;18.56;51.03
56568;BME280;42456;49.956;20.004;2023-04-29T09:43:16;98055.30;;;18.68;51.13
56568;BME280;42456;49.956;20.004;2023-04-29T09:45:49;98052.21;;;18.77;50.45
56568;BME280;42456;49.956;20.004;2023-04-29T09:48:17;98050.98;;;18.85;50.88
56568;BME280;42456;49.956;20.004;2023-04-29T09:50:58;98051.06;;;18.95;50.58
56568;BME280;42456;49.956;20.004;2023-04-29T09:53:28;98048.65;;;19.05;50.27
56568;BME280;42456;49.956;20.004;2023-04-29T09:59:25;98042.89;;;19.23;48.97
56568;BME280;42456;49.956;20.004;2023-04-29T10:01:56;98043.52;;;19.29;48.93
56568;BME280;42456;49.956;20.004;2023-04-29T10:04:25;98042.52;;;19.30;47.93
56568;BME280;42456;49.956;20.004;2023-04-29T10:06:54;98045.41;;;19.28;47.91
56568;BME280;42456;49.956;20.004;2023-04-29T10:09:41;98042.14;;;19.27;47.51
56568;BME280;42456;49.956;20.004;2023-04-29T10:12:10;98035.90;;;19.28;47.10
56568;BME280;42456;49.956;20.004;2023-04-29T10:17:58;98034.25;;;19.45;47.98
56568;BME280;42456;49.956;20.004;2023-04-29T10:20:48;98032.34;;;19.69;49.24
56568;BME280;42456;49.956;20.004;2023-04-29T10:23:34;98029.31;;;19.86;48.85
56568;BME280;42456;49.956;20.004;2023-04-29T10:26:03;98022.65;;;19.97;48.59
56568;BME280;42456;49.956;20.004;2023-04-29T10:28:31;98024.71;;;20.09;48.51
56568;BME280;42456;49.956;20.004;2023-04-29T10:31:01;98027.66;;;20.17;48.23
56568;BME280;42456;49.956;20.004;2023-04-29T10:33:32;98020.77;;;20.24;47.66
56568;BME280;42456;49.956;20.004;2023-04-29T10:36:01;98018.73;;;20.23;46.33
56568;BME280;42456;49.956;20.004;2023-04-29T10:38:37;98017.69;;;20.12;46.01
56568;BME280;42456;49.956;20.004;2023-04-29T10:41:14;98016.30;;;20.04;46.19
56568;BME280;42456;49.956;20.004;2023-04-29T10:43:42;98014.55;;;19.96;46.67
56568;BME280;42456;49.956;20.004;2023-04-29T10:48:50;98010.18;;;19.96;46.53
56568;BME280;42456;49.956;20.004;2023-04-29T10:51:29;98010.63;;;20.01;47.05
56568;BME280;42456;49.956;20.004;2023-04-29T10:54:11;98012.61;;;20.07;47.11
56568;BME280;42456;49.956;20.004;2023-04-29T10:56:57;98015.17;;;20.17;47.33
56568;BME280;42456;49.956;20.004;2023-04-29T11:01:54;98008.05;;;20.26;45.32
56568;BME280;42456;49.956;20.004;2023-04-29T11:04:21;98004.38;;;20.24;45.09
56568;BME280;42456;49.956;20.004;2023-04-29T11:06:54;98000.63;;;20.25;45.10
56568;BME280;42456;49.956;20.004;2023-04-29T11:09:26;98002.35;;;20.24;44.67
56568;BME280;42456;49.956;20.004;2023-04-29T11:12:03;98005.20;;;20.18;44.88
56568;BME280;42456;49.956;20.004;2023-04-29T11:14:39;98007.23;;;20.17;45.84
56568;BME280;42456;49.956;20.004;2023-04-29T11:17:13;98006.13;;;20.18;45.95
56568;BME280;42456;49.956;20.004;2023-04-29T11:19:45;98001.13;;;20.19;45.80
56568;BME280;42456;49.956;20.004;2023-04-29T11:24:59;97997.09;;;20.13;45.26
56568;BME280;42456;49.956;20.004;2023-04-29T11:27:39;98003.48;;;20.07;45.56
56568;BME280;42456;49.956;20.004;2023-04-29T11:30:08;97997.95;;;20.06;46.01
56568;BME280;42456;49.956;20.004;2023-04-29T11:32:38;98000.64;;;20.01;46.39
56568;BME280;42456;49.956;20.004;2023-04-29T11:37:39;98001.83;;;19.77;46.03
56568;BME280;42456;49.956;20.004;2023-04-29T11:40:07;98003.90;;;19.60;46.23
56568;BME280;42456;49.956;20.004;2023-04-29T11:42:40;98002.99;;;19.46;46.50
56568;BME280;42456;49.956;20.004;2023-04-29T11:45:08;98003.95;;;19.39;47.60
56568;BME280;42456;49.956;20.004;2023-04-29T11:47:36;97996.55;;;19.40;47.52
56568;BME280;42456;49.956;20.004;2023-04-29T11:50:05;97992.64;;;19.49;47.88
56568;BME280;42456;49.956;20.004;2023-04-29T11:52:37;97997.36;;;19.57;47.86
56568;BME280;42456;49.956;20.004;2023-04-29T11:55:09;97996.80;;;19.62;48.11
56568;BME280;42456;49.956;20.004;2023-04-29T11:57:37;97996.95;;;19.67;47.74
56568;BME280;42456;49.956;20.004;2023-04-29T12:00:09;97996.23;;;19.70;47.17
56568;BME280;42456;49.956;20.004;2023-04-29T12:02:43;97990.64;;;19.64;46.80
56568;BME280;42456;49.956;20.004;2023-04-29T12:05:12;97992.66;;;19.66;46.95
56568;BME280;42456;49.956;20.004;2023-04-29T12:07:42;97992.65;;;19.67;46.65
56568;BME280;42456;49.956;20.004;2023-04-29T12:10:09;97989.30;;;19.68;47.38
56568;BME280;42456;49.956;20.004;2023-04-29T12:12:38;97990.62;;;19.72;47.74
56568;BME280;42456;49.956;20.004;2023-04-29T12:15:10;97991.23;;;19.75;47.42
56568;BME280;42456;49.956;20.004;2023-04-29T12:17:38;97989.58;;;19.78;47.24
56568;BME280;42456;49.956;20.004;2023-04-29T12:20:06;97988.63;;;19.80;47.47
56568;BME280;42456;49.956;20.004;2023-04-29T12:22:36;97991.14;;;19.79;47.63
56568;BME280;42456;49.956;20.004;2023-04-29T12:25:03;97993.02;;;19.77;47.24
56568;BME280;42456;49.956;20.004;2023-04-29T12:27:31;97991.07;;;19.74;47.27
56568;BME280;42456;49.956;20.004;2023-04-29T12:29:59;97990.79;;;19.67;47.21
56568;BME280;42456;49.956;20.004;2023-04-29T12:32:27;97988.86;;;19.56;46.57
56568;BME280;42456;49.956;20.004;2023-04-29T12:34:54;97991.72;;;19.42;46.63
56568;BME280;42456;49.956;20.004;2023-04-29T12:37:21;97990.63;;;19.30;46.92
56568;BME280;42456;49.956;20.004;2023-04-29T12:39:54;97989.30;;;19.19;47.14
56568;BME280;42456;49.956;20.004;2023-04-29T12:42:21;97987.21;;;19.07;47.27
56568;BME280;42456;49.956;20.004;2023-04-29T12:44:48;97984.18;;;18.96;47.11
56568;BME280;42456;49.956;20.004;2023-04-29T12:47:15;97982.15;;;18.85;47.42
56568;BME280;42456;49.956;20.004;2023-04-29T12:49:46;97978.57;;;18.77;47.59
56568;BME280;42456;49.956;20.004;2023-04-29T12:52:13;97978.80;;;18.72;47.59
56568;BME280;42456;49.956;20.004;2023-04-29T12:54:41;97976.78;;;18.69;47.78
56568;BME280;42456;49.956;20.004;2023-04-29T12:57:34;97974.69;;;18.69;47.85
56568;BME280;42456;49.956;20.004;2023-04-29T13:00:04;97968.45;;;18.71;47.67
56568;BME280;42456;49.956;20.004;2023-04-29T13:02:31;97970.56;;;18.71;47.00
56568;BME280;42456;49.956;20.004;2023-04-29T13:05:07;97969.31;;;18.73;47.21
56568;BME280;42456;49.956;20.004;2023-04-29T13:07:49;97971.26;;;18.75;47.15
56568;BME280;42456;49.956;20.004;2023-04-29T13:10:34;97970.95;;;18.76;48.11
56568;BME280;42456;49.956;20.004;2023-04-29T13:14:42;97973.90;;;18.70;47.78
56568;BME280;42456;49.956;20.004;2023-04-29T13:17:47;97972.95;;;18.62;48.28
56568;BME280;42456;49.956;20.004;2023-04-29T13:20:18;97972.56;;;18.56;48.06
56568;BME280;42456;49.956;20.004;2023-04-29T13:22:45;97973.33;;;18.49;48.25
56568;BME280;42456;49.956;20.004;2023-04-29T13:25:12;97971.69;;;18.42;48.81
56568;BME280;42456;49.956;20.004;2023-04-29T13:27:40;97970.17;;;18.35;48.74
56568;BME280;42456;49.956;20.004;2023-04-29T13:30:07;97972.88;;;18.27;48.49
56568;BME280;42456;49.956;20.004;2023-04-29T13:32:35;97972.63;;;18.19;48.58
56568;BME280;42456;49.956;20.004;2023-04-29T13:35:06;97971.83;;;18.09;48.79